createdAt,value
2023-05-23T00:01:45.485Z,91.00
2023-05-23T00:04:31.538Z,91.10
2023-05-23T00:07:17.498Z,91.10
2023-05-23T00:10:04.512Z,91.30
2023-05-23T00:12:50.826Z,91.50
2023-05-23T00:15:41.684Z,91.40
2023-05-23T00:18:27.933Z,91.30
2023-05-23T00:21:14.127Z,91.30
2023-05-23T00:24:02.507Z,91.20
2023-05-23T00:26:48.799Z,91.20
2023-05-23T00:29:35.008Z,91.40
2023-05-23T00:32:21.032Z,91.30
2023-05-23T00:35:08.019Z,91.10
2023-05-23T00:37:55.605Z,91.10
2023-05-23T00:40:42.026Z,91.00
2023-05-23T00:43:29.539Z,91.10
2023-05-23T00:46:16.748Z,91.10
2023-05-23T00:49:03.416Z,91.10
2023-05-23T00:51:50.153Z,91.00
2023-05-23T00:54:36.903Z,91.00
2023-05-23T00:57:22.785Z,91.00
2023-05-23T01:00:10.190Z,90.90
2023-05-23T01:02:56.766Z,90.80
2023-05-23T01:05:44.504Z,90.80
2023-05-23T01:08:30.844Z,90.80
2023-05-23T01:11:37.672Z,90.80
2023-05-23T01:14:36.084Z,90.60
2023-05-23T01:17:27.218Z,90.90
2023-05-23T01:20:26.510Z,91.00
2023-05-23T01:23:39.032Z,90.90
2023-05-23T01:27:07.144Z,91.20
2023-05-23T01:29:57.901Z,91.00
2023-05-23T01:32:45.263Z,91.30
2023-05-23T01:35:32.686Z,91.30
2023-05-23T01:38:19.107Z,91.40
2023-05-23T01:41:05.118Z,91.50
2023-05-23T01:43:51.379Z,91.60
2023-05-23T01:46:40.631Z,91.60
2023-05-23T01:49:27.668Z,91.60
2023-05-23T01:52:15.621Z,91.80
2023-05-23T01:55:09.821Z,91.80
2023-05-23T01:57:58.087Z,91.90
2023-05-23T02:00:44.330Z,92.00
2023-05-23T02:03:30.864Z,92.00
2023-05-23T02:06:17.370Z,92.20
2023-05-23T02:09:05.957Z,92.40
2023-05-23T02:11:51.859Z,92.40
2023-05-23T02:14:37.806Z,92.60
2023-05-23T02:17:24.333Z,92.70
2023-05-23T02:20:10.979Z,92.80
2023-05-23T02:22:56.889Z,93.10
2023-05-23T02:25:43.616Z,93.30
2023-05-23T02:28:29.824Z,93.30
2023-05-23T02:31:17.290Z,93.30
2023-05-23T02:34:03.906Z,93.50
2023-05-23T02:36:49.939Z,93.60
2023-05-23T02:39:37.036Z,93.80
2023-05-23T02:42:23.391Z,93.90
2023-05-23T02:45:09.748Z,93.90
2023-05-23T02:47:56.254Z,94.20
2023-05-23T02:50:44.350Z,94.30
2023-05-23T02:53:30.672Z,94.50
2023-05-23T02:56:16.519Z,94.60
2023-05-23T02:59:02.438Z,94.80
2023-05-23T03:01:48.986Z,94.90
2023-05-23T03:04:35.163Z,95.00
2023-05-23T03:07:28.148Z,95.10
2023-05-23T03:10:15.061Z,95.10
2023-05-23T03:13:00.934Z,95.40
2023-05-23T03:15:47.592Z,95.60
2023-05-23T03:18:33.426Z,95.80
2023-05-23T03:21:21.399Z,95.70
2023-05-23T03:24:07.305Z,95.80
2023-05-23T03:26:53.718Z,95.80
2023-05-23T03:29:40.187Z,96.10
2023-05-23T03:32:26.470Z,96.20
2023-05-23T03:35:12.969Z,96.30
2023-05-23T03:37:59.317Z,96.60
2023-05-23T03:40:45.740Z,96.80
2023-05-23T03:43:32.104Z,96.90
2023-05-23T03:46:19.056Z,97.10
2023-05-23T03:49:05.617Z,97.30
2023-05-23T03:51:51.716Z,97.40
2023-05-23T03:54:37.975Z,97.60
2023-05-23T03:57:24.545Z,97.80
2023-05-23T04:00:12.678Z,98.20
2023-05-23T04:03:08.716Z,98.30
2023-05-23T04:05:55.135Z,98.50
2023-05-23T04:08:42.133Z,98.70
2023-05-23T04:11:28.539Z,98.80
2023-05-23T04:14:14.624Z,98.80
2023-05-23T04:17:01.648Z,98.80
2023-05-23T04:19:48.848Z,98.80
2023-05-23T04:22:35.316Z,98.80
2023-05-23T04:25:24.328Z,98.80
2023-05-23T04:28:34.422Z,98.80
2023-05-23T04:31:22.345Z,98.90
2023-05-23T04:34:09.768Z,98.90
2023-05-23T04:36:58.688Z,99.00
2023-05-23T04:39:47.232Z,99.00
2023-05-23T04:42:44.624Z,99.00
2023-05-23T04:45:42.396Z,98.90
2023-05-23T04:48:48.952Z,98.90
2023-05-23T04:51:35.375Z,99.00
2023-05-23T04:54:31.862Z,99.00
2023-05-23T04:57:20.968Z,99.00
2023-05-23T05:00:10.511Z,98.80
2023-05-23T05:02:57.662Z,99.00
2023-05-23T05:05:47.542Z,99.10
2023-05-23T05:08:35.007Z,99.10
2023-05-23T05:11:22.131Z,99.00
2023-05-23T05:14:08.229Z,99.00
2023-05-23T05:16:57.729Z,99.00
2023-05-23T05:19:49.710Z,99.10
2023-05-23T05:22:40.960Z,99.00
2023-05-23T05:25:31.889Z,99.40
2023-05-23T05:28:18.243Z,99.00
2023-05-23T05:31:10.219Z,99.10
2023-05-23T05:33:58.269Z,99.00
2023-05-23T05:36:48.618Z,99.00
2023-05-23T05:39:37.326Z,98.70
2023-05-23T05:42:25.269Z,98.50
2023-05-23T05:45:12.496Z,98.60
2023-05-23T05:48:00.703Z,98.40
2023-05-23T05:50:46.957Z,98.20
2023-05-23T05:53:33.349Z,98.30
2023-05-23T05:56:20.802Z,97.80
2023-05-23T05:59:08.377Z,97.70
2023-05-23T06:01:55.811Z,97.80
2023-05-23T06:04:42.158Z,98.00
2023-05-23T06:07:28.112Z,97.70
2023-05-23T06:10:14.453Z,97.70
2023-05-23T06:13:01.434Z,97.40
2023-05-23T06:15:47.876Z,97.40
2023-05-23T06:18:34.319Z,97.20
2023-05-23T06:21:20.668Z,97.20
2023-05-23T06:24:09.027Z,97.20
2023-05-23T06:26:55.136Z,97.50
2023-05-23T06:29:41.008Z,96.90
2023-05-23T06:32:27.447Z,97.40
2023-05-23T06:35:14.047Z,97.20
2023-05-23T06:38:00.216Z,97.20
2023-05-23T06:40:46.423Z,97.50
2023-05-23T06:43:33.795Z,97.20
2023-05-23T06:46:32.865Z,97.20
2023-05-23T06:49:19.363Z,97.00
2023-05-23T06:52:06.384Z,96.90
2023-05-23T06:54:52.358Z,96.30
2023-05-23T06:57:38.726Z,96.30
2023-05-23T07:00:24.855Z,96.60
2023-05-23T07:03:22.521Z,96.80
2023-05-23T07:06:09.984Z,97.00
2023-05-23T07:08:57.163Z,96.30
2023-05-23T07:11:44.614Z,95.90
2023-05-23T07:14:32.348Z,95.50
2023-05-23T07:17:19.007Z,95.20
2023-05-23T07:20:07.324Z,95.00
2023-05-23T07:22:57.353Z,95.20
2023-05-23T07:25:53.862Z,95.20
2023-05-23T07:28:45.561Z,95.30
2023-05-23T07:31:32.058Z,95.10
2023-05-23T07:34:19.180Z,95.30
2023-05-23T07:37:11.556Z,95.40
2023-05-23T07:40:02.553Z,95.30
2023-05-23T07:42:48.865Z,95.70
2023-05-23T07:45:35.014Z,95.70
2023-05-23T07:48:21.586Z,95.70
2023-05-23T07:51:07.838Z,96.20
2023-05-23T07:53:53.788Z,95.80
2023-05-23T07:56:43.539Z,95.60
2023-05-23T07:59:30.297Z,94.80
2023-05-23T08:02:18.321Z,95.20
2023-05-23T08:05:05.448Z,95.00
2023-05-23T08:07:54.335Z,94.70
2023-05-23T08:10:40.998Z,94.90
2023-05-23T08:13:34.145Z,94.90
2023-05-23T08:16:46.455Z,94.70
2023-05-23T08:19:38.368Z,94.40
2023-05-23T08:22:24.540Z,94.90
2023-05-23T08:25:11.646Z,95.20
2023-05-23T08:28:01.171Z,95.10
2023-05-23T08:31:00.872Z,95.20
2023-05-23T08:33:48.328Z,94.90
2023-05-23T08:36:37.056Z,94.80
2023-05-23T08:39:25.467Z,94.60
2023-05-23T08:42:19.485Z,94.90
2023-05-23T08:45:06.495Z,94.70
2023-05-23T08:47:54.182Z,94.20
2023-05-23T08:50:46.271Z,94.00
2023-05-23T08:53:33.770Z,94.10
2023-05-23T08:56:28.540Z,94.30
2023-05-23T08:59:17.091Z,94.30
2023-05-23T09:02:11.842Z,94.20
2023-05-23T09:04:59.639Z,94.20
2023-05-23T09:07:51.096Z,94.10
2023-05-23T09:10:37.906Z,94.00
2023-05-23T09:13:25.944Z,94.00
2023-05-23T09:16:13.328Z,93.60
2023-05-23T09:19:13.093Z,94.30
2023-05-23T09:22:03.828Z,94.00
2023-05-23T09:25:07.981Z,93.70
2023-05-23T09:27:56.593Z,93.70
2023-05-23T09:30:43.716Z,93.30
2023-05-23T09:33:50.357Z,93.50
2023-05-23T09:36:44.001Z,93.50
2023-05-23T09:39:30.544Z,93.80
2023-05-23T09:42:31.258Z,93.90
2023-05-23T09:45:18.674Z,93.70
2023-05-23T09:48:04.650Z,93.60
2023-05-23T09:50:51.512Z,93.80
2023-05-23T09:53:38.529Z,93.90
2023-05-23T09:56:26.579Z,93.80
2023-05-23T09:59:16.068Z,94.20
2023-05-23T10:02:06.648Z,93.90
2023-05-23T10:04:53.505Z,93.80
2023-05-23T10:07:40.241Z,93.80
2023-05-23T10:10:28.472Z,93.90
2023-05-23T10:13:15.031Z,93.60
2023-05-23T10:16:19.106Z,93.50
2023-05-23T10:19:13.383Z,93.10
2023-05-23T10:22:04.088Z,92.60
2023-05-23T10:24:51.123Z,93.10
2023-05-23T10:27:40.732Z,92.20
2023-05-23T10:30:27.588Z,92.20
2023-05-23T10:33:17.102Z,92.60
2023-05-23T10:36:14.893Z,93.10
2023-05-23T10:39:37.031Z,93.00
2023-05-23T10:42:36.250Z,92.90
2023-05-23T10:45:24.490Z,92.80
2023-05-23T10:48:41.060Z,92.70
2023-05-23T10:51:39.330Z,90.60
2023-05-23T10:54:25.129Z,90.70
2023-05-23T10:57:16.652Z,86.70
2023-05-23T11:00:04.418Z,83.10
2023-05-23T11:02:59.872Z,82.70
2023-05-23T11:05:53.719Z,82.00
2023-05-23T11:08:48.495Z,81.90
2023-05-23T11:11:58.014Z,81.40
2023-05-23T11:14:47.049Z,81.10
2023-05-23T11:17:34.090Z,77.40
2023-05-23T11:20:24.547Z,78.30
2023-05-23T11:23:13.380Z,78.10
2023-05-23T11:25:59.320Z,77.90
2023-05-23T11:28:58.928Z,76.30
2023-05-23T11:31:45.553Z,78.30
2023-05-23T11:34:32.798Z,79.10
2023-05-23T11:37:20.499Z,79.70
2023-05-23T11:40:32.930Z,79.90
2023-05-23T11:43:19.809Z,78.80
2023-05-23T11:46:09.649Z,77.50
2023-05-23T11:48:55.838Z,78.30
2023-05-23T11:51:41.856Z,75.20
2023-05-23T11:54:28.138Z,76.80
2023-05-23T11:57:14.468Z,79.20
2023-05-23T12:00:00.851Z,77.20
2023-05-23T12:02:50.435Z,78.80
2023-05-23T12:05:37.187Z,77.10
2023-05-23T12:08:23.692Z,75.70
2023-05-23T12:11:10.308Z,75.90
2023-05-23T12:13:56.482Z,76.00
2023-05-23T12:16:48.138Z,75.90
2023-05-23T12:19:36.038Z,76.00
2023-05-23T12:22:25.136Z,76.50
2023-05-23T12:25:11.758Z,78.20
2023-05-23T12:27:58.153Z,79.10
2023-05-23T12:30:44.585Z,79.60
2023-05-23T12:33:30.743Z,78.60
2023-05-23T12:36:23.260Z,83.50
2023-05-23T12:39:09.444Z,77.80
2023-05-23T12:41:58.393Z,77.00
2023-05-23T12:44:45.988Z,76.20
2023-05-23T12:47:32.458Z,75.70
2023-05-23T12:50:18.807Z,77.50
2023-05-23T12:53:04.818Z,78.50
2023-05-23T12:55:50.588Z,79.50
2023-05-23T12:58:36.535Z,79.70
2023-05-23T13:01:22.603Z,78.50
2023-05-23T13:04:09.003Z,79.60
2023-05-23T13:06:55.514Z,77.20
2023-05-23T13:09:41.582Z,75.00
2023-05-23T13:12:27.570Z,73.10
2023-05-23T13:15:13.440Z,72.40
2023-05-23T13:18:00.048Z,71.80
2023-05-23T13:20:46.607Z,73.90
2023-05-23T13:23:33.367Z,75.30
2023-05-23T13:26:19.326Z,74.80
2023-05-23T13:29:06.260Z,73.00
2023-05-23T13:31:53.769Z,74.50
2023-05-23T13:34:39.733Z,74.00
2023-05-23T13:37:26.053Z,74.40
2023-05-23T13:40:20.040Z,72.70
2023-05-23T13:43:06.221Z,73.90
2023-05-23T13:45:52.680Z,74.10
2023-05-23T13:48:38.822Z,72.10
2023-05-23T13:51:24.971Z,73.00
2023-05-23T13:54:11.155Z,72.00
2023-05-23T13:56:57.201Z,71.40
2023-05-23T13:59:43.527Z,70.80
2023-05-23T14:02:32.053Z,71.40
2023-05-23T14:05:19.410Z,71.70
2023-05-23T14:08:06.085Z,72.60
2023-05-23T14:10:52.207Z,72.20
2023-05-23T14:13:38.195Z,72.90
2023-05-23T14:16:24.297Z,72.60
2023-05-23T14:19:10.457Z,73.20
2023-05-23T14:21:56.424Z,71.90
2023-05-23T14:24:42.525Z,73.30
2023-05-23T14:27:28.289Z,74.10
2023-05-23T14:30:15.167Z,72.90
2023-05-23T14:33:01.584Z,73.50
2023-05-23T14:35:48.003Z,75.00
2023-05-23T14:38:34.568Z,74.50
2023-05-23T14:41:21.740Z,75.80
2023-05-23T14:44:07.893Z,74.00
2023-05-23T14:46:54.295Z,74.60
2023-05-23T14:49:40.353Z,75.10
2023-05-23T14:52:26.311Z,75.60
2023-05-23T14:55:12.434Z,74.30
2023-05-23T14:57:58.347Z,75.20
2023-05-23T15:00:46.943Z,74.30
2023-05-23T15:03:33.167Z,74.90
2023-05-23T15:06:19.809Z,74.40
2023-05-23T15:09:06.415Z,76.10
2023-05-23T15:11:52.870Z,75.80
2023-05-23T15:14:39.021Z,76.40
2023-05-23T15:17:26.883Z,75.60
2023-05-23T15:20:13.413Z,75.60
2023-05-23T15:22:59.346Z,74.30
2023-05-23T15:25:49.786Z,74.50
2023-05-23T15:28:36.319Z,75.70
2023-05-23T15:31:22.337Z,77.20
2023-05-23T15:34:08.632Z,75.10
2023-05-23T15:36:56.280Z,75.40
2023-05-23T15:39:42.883Z,74.80
2023-05-23T15:42:28.727Z,74.20
2023-05-23T15:45:15.284Z,74.10
2023-05-23T15:48:01.313Z,74.40
2023-05-23T15:50:47.327Z,73.50
2023-05-23T15:53:40.202Z,71.60
2023-05-23T15:56:34.231Z,71.30
2023-05-23T15:59:20.217Z,72.10
2023-05-23T16:02:07.562Z,72.00
2023-05-23T16:04:53.859Z,71.90
2023-05-23T16:07:39.614Z,72.00
2023-05-23T16:10:25.857Z,72.80
2023-05-23T16:13:12.013Z,73.10
2023-05-23T16:15:58.845Z,73.80
2023-05-23T16:18:45.614Z,73.30
2023-05-23T16:21:32.278Z,73.60
2023-05-23T16:24:19.438Z,74.20
2023-05-23T16:27:05.807Z,74.00
2023-05-23T16:29:51.821Z,73.50
2023-05-23T16:32:37.892Z,73.30
2023-05-23T16:35:24.129Z,74.30
2023-05-23T16:38:10.464Z,74.90
2023-05-23T16:40:56.756Z,74.70
2023-05-23T16:43:42.669Z,74.30
2023-05-23T16:46:28.651Z,74.80
2023-05-23T16:49:14.752Z,75.80
2023-05-23T16:52:00.713Z,75.70
2023-05-23T16:54:46.613Z,75.30
2023-05-23T16:57:33.386Z,76.20
2023-05-23T17:00:20.596Z,77.00
2023-05-23T17:03:07.159Z,76.80
2023-05-23T17:05:53.815Z,77.20
2023-05-23T17:08:39.787Z,77.10
2023-05-23T17:11:27.112Z,76.20
2023-05-23T17:14:13.231Z,76.00
2023-05-23T17:16:59.690Z,76.60
2023-05-23T17:19:46.436Z,77.00
2023-05-23T17:22:32.752Z,77.40
2023-05-23T17:25:19.037Z,77.10
2023-05-23T17:28:05.585Z,76.10
2023-05-23T17:30:53.170Z,75.50
2023-05-23T17:33:39.482Z,75.60
2023-05-23T17:36:26.190Z,74.90
2023-05-23T17:39:12.176Z,75.00
2023-05-23T17:41:58.617Z,74.70
2023-05-23T17:44:44.629Z,75.50
2023-05-23T17:47:31.096Z,75.60
2023-05-23T17:50:17.338Z,75.00
2023-05-23T17:53:04.463Z,75.00
2023-05-23T17:55:50.949Z,74.80
2023-05-23T17:58:37.914Z,74.80
2023-05-23T18:01:25.189Z,75.60
2023-05-23T18:04:11.804Z,75.40
2023-05-23T18:06:58.348Z,76.10
2023-05-23T18:09:48.067Z,76.20
2023-05-23T18:12:34.242Z,76.10
2023-05-23T18:15:20.450Z,76.00
2023-05-23T18:18:06.735Z,75.80
2023-05-23T18:20:53.233Z,76.20
2023-05-23T18:23:39.125Z,75.70
2023-05-23T18:26:25.243Z,75.80
2023-05-23T18:29:11.269Z,76.00
2023-05-23T18:31:57.267Z,75.40
2023-05-23T18:34:43.559Z,75.60
2023-05-23T18:37:29.406Z,75.50
2023-05-23T18:40:16.017Z,75.70
2023-05-23T18:43:02.554Z,76.20
2023-05-23T18:45:48.552Z,76.20
2023-05-23T18:48:35.858Z,76.10
2023-05-23T18:51:22.168Z,76.50
2023-05-23T18:54:08.423Z,76.60
2023-05-23T18:56:54.614Z,77.10
2023-05-23T18:59:40.744Z,76.90
2023-05-23T19:02:27.084Z,77.30
2023-05-23T19:05:13.677Z,78.00
2023-05-23T19:07:59.820Z,78.00
2023-05-23T19:10:45.860Z,78.00
2023-05-23T19:13:32.148Z,78.90
2023-05-23T19:16:19.368Z,78.30
2023-05-23T19:19:06.103Z,78.50
2023-05-23T19:21:52.550Z,79.00
2023-05-23T19:24:38.930Z,79.80
2023-05-23T19:27:24.798Z,79.80
2023-05-23T19:30:11.563Z,79.40
2023-05-23T19:33:01.370Z,80.70
2023-05-23T19:35:47.354Z,80.60
2023-05-23T19:38:33.263Z,80.50
2023-05-23T19:41:20.269Z,80.50
2023-05-23T19:44:06.532Z,81.60
2023-05-23T19:46:52.609Z,81.60
2023-05-23T19:49:38.797Z,81.70
2023-05-23T19:52:24.950Z,81.10
2023-05-23T19:55:11.066Z,80.80
2023-05-23T19:57:57.390Z,81.20
2023-05-23T20:00:44.299Z,81.10
2023-05-23T20:03:30.879Z,81.30
2023-05-23T20:06:17.144Z,82.20
2023-05-23T20:09:03.187Z,82.20
2023-05-23T20:11:49.454Z,82.90
2023-05-23T20:14:35.762Z,82.60
2023-05-23T20:17:22.162Z,82.40
2023-05-23T20:20:08.772Z,83.20
2023-05-23T20:22:54.721Z,83.30
2023-05-23T20:25:41.612Z,83.20
2023-05-23T20:28:27.799Z,83.30
2023-05-23T20:31:13.796Z,83.60
2023-05-23T20:34:00.023Z,83.90
2023-05-23T20:36:46.167Z,83.60
2023-05-23T20:39:32.036Z,83.50
2023-05-23T20:42:18.082Z,83.90
2023-05-23T20:45:07.162Z,84.10
2023-05-23T20:47:53.638Z,84.20
2023-05-23T20:50:40.613Z,84.70
2023-05-23T20:53:31.412Z,84.60
2023-05-23T20:56:18.199Z,84.80
2023-05-23T20:59:04.349Z,85.00
2023-05-23T21:01:50.504Z,85.10
2023-05-23T21:04:36.826Z,85.50
2023-05-23T21:07:23.052Z,85.90
2023-05-23T21:10:09.303Z,86.30
2023-05-23T21:12:55.124Z,86.40
2023-05-23T21:15:41.363Z,86.60
2023-05-23T21:18:27.817Z,86.80
2023-05-23T21:21:14.018Z,87.20
2023-05-23T21:23:59.961Z,87.50
2023-05-23T21:26:45.884Z,88.00
2023-05-23T21:29:31.928Z,88.50
2023-05-23T21:32:18.231Z,88.90
2023-05-23T21:35:04.420Z,89.40
2023-05-23T21:37:50.815Z,89.80
2023-05-23T21:40:37.036Z,90.10
2023-05-23T21:43:22.943Z,90.30
2023-05-23T21:46:09.512Z,90.40
2023-05-23T21:48:55.886Z,90.60
2023-05-23T21:51:42.295Z,90.70
2023-05-23T21:54:28.482Z,90.70
2023-05-23T21:57:15.238Z,90.90
2023-05-23T22:00:01.429Z,91.00
2023-05-23T22:02:48.728Z,91.10
2023-05-23T22:05:35.581Z,91.30
2023-05-23T22:08:21.435Z,91.40
2023-05-23T22:11:10.424Z,91.50
2023-05-23T22:13:56.565Z,91.60
2023-05-23T22:16:42.932Z,91.70
2023-05-23T22:19:30.379Z,92.00
2023-05-23T22:22:16.571Z,91.80
2023-05-23T22:25:02.766Z,91.90
2023-05-23T22:27:48.655Z,92.10
2023-05-23T22:30:34.855Z,92.20
2023-05-23T22:33:21.023Z,92.40
2023-05-23T22:36:07.932Z,92.40
2023-05-23T22:38:54.116Z,92.50
2023-05-23T22:41:40.610Z,92.50
2023-05-23T22:44:26.785Z,92.50
2023-05-23T22:47:14.226Z,92.60
2023-05-23T22:50:00.680Z,92.60
2023-05-23T22:52:48.506Z,92.70
2023-05-23T22:55:35.365Z,92.80
2023-05-23T22:58:21.259Z,92.80
2023-05-23T23:01:07.521Z,92.60
2023-05-23T23:03:55.554Z,92.70
2023-05-23T23:06:43.192Z,92.50
2023-05-23T23:09:29.194Z,92.60
2023-05-23T23:12:15.339Z,92.70
2023-05-23T23:15:01.649Z,92.60
2023-05-23T23:17:48.045Z,92.70
2023-05-23T23:20:34.351Z,92.50
2023-05-23T23:23:20.819Z,92.40
2023-05-23T23:26:07.143Z,92.50
2023-05-23T23:28:52.975Z,92.50
2023-05-23T23:31:38.907Z,92.60
2023-05-23T23:34:26.265Z,92.50
2023-05-23T23:37:12.590Z,92.60
2023-05-23T23:39:58.638Z,92.90
2023-05-23T23:42:44.700Z,92.90
2023-05-23T23:45:30.634Z,93.00
2023-05-23T23:48:17.004Z,92.90
2023-05-23T23:51:03.119Z,92.80
2023-05-23T23:53:51.639Z,93.20
2023-05-23T23:56:39.739Z,93.20
2023-05-23T23:59:25.911Z,93.30
